sensor_id;sensor_type;location;lat;lon;timestamp;temperature;humidity
45012;DHT22;63444;48.148;11.542;2023-02-23T00:01:16;9.70;94.80
45012;DHT22;63444;48.148;11.542;2023-02-23T00:03:44;9.70;94.90
45012;DHT22;63444;48.148;11.542;2023-02-23T00:06:10;9.80;94.90
45012;DHT22;63444;48.148;11.542;2023-02-23T00:08:37;9.70;95.00
45012;DHT22;63444;48.148;11.542;2023-02-23T00:11:04;9.70;95.00
45012;DHT22;63444;48.148;11.542;2023-02-23T00:13:34;9.70;95.20
45012;DHT22;63444;48.148;11.542;2023-02-23T00:16:10;9.70;95.30
45012;DHT22;63444;48.148;11.542;2023-02-23T00:18:54;9.70;95.40
45012;DHT22;63444;48.148;11.542;2023-02-23T00:23:53;9.60;95.80
45012;DHT22;63444;48.148;11.542;2023-02-23T00:26:21;9.60;96.20
45012;DHT22;63444;48.148;11.542;2023-02-23T00:28:48;9.50;96.20
45012;DHT22;63444;48.148;11.542;2023-02-23T00:31:15;9.60;96.30
45012;DHT22;63444;48.148;11.542;2023-02-23T00:33:41;9.60;96.50
45012;DHT22;63444;48.148;11.542;2023-02-23T00:36:13;9.60;96.70
45012;DHT22;63444;48.148;11.542;2023-02-23T00:38:40;9.60;96.80
45012;DHT22;63444;48.148;11.542;2023-02-23T00:43:39;9.50;97.30
45012;DHT22;63444;48.148;11.542;2023-02-23T00:46:12;9.50;97.40
45012;DHT22;63444;48.148;11.542;2023-02-23T00:48:38;9.50;97.70
45012;DHT22;63444;48.148;11.542;2023-02-23T00:51:04;9.50;97.80
45012;DHT22;63444;48.148;11.542;2023-02-23T00:53:31;9.50;98.00
45012;DHT22;63444;48.148;11.542;2023-02-23T00:55:57;9.50;98.10
45012;DHT22;63444;48.148;11.542;2023-02-23T00:58:24;9.50;98.20
45012;DHT22;63444;48.148;11.542;2023-02-23T01:00:50;9.50;98.30
45012;DHT22;63444;48.148;11.542;2023-02-23T01:03:16;9.60;98.40
45012;DHT22;63444;48.148;11.542;2023-02-23T01:05:41;9.60;98.60
45012;DHT22;63444;48.148;11.542;2023-02-23T01:08:09;9.60;98.60
45012;DHT22;63444;48.148;11.542;2023-02-23T01:10:39;9.50;98.80
45012;DHT22;63444;48.148;11.542;2023-02-23T01:13:05;9.50;98.80
45012;DHT22;63444;48.148;11.542;2023-02-23T01:15:31;9.50;99.00
45012;DHT22;63444;48.148;11.542;2023-02-23T01:17:57;9.50;99.20
45012;DHT22;63444;48.148;11.542;2023-02-23T01:20:22;9.40;99.30
45012;DHT22;63444;48.148;11.542;2023-02-23T01:22:50;9.40;99.50
45012;DHT22;63444;48.148;11.542;2023-02-23T01:25:18;9.40;99.60
45012;DHT22;63444;48.148;11.542;2023-02-23T01:27:44;9.40;99.90
45012;DHT22;63444;48.148;11.542;2023-02-23T01:30:13;9.40;99.90
45012;DHT22;63444;48.148;11.542;2023-02-23T01:32:39;9.40;99.90
45012;DHT22;63444;48.148;11.542;2023-02-23T01:35:09;9.40;99.90
45012;DHT22;63444;48.148;11.542;2023-02-23T01:37:36;9.30;99.90
45012;DHT22;63444;48.148;11.542;2023-02-23T01:40:07;9.30;99.90
45012;DHT22;63444;48.148;11.542;2023-02-23T01:42:54;9.20;99.90
45012;DHT22;63444;48.148;11.542;2023-02-23T01:45:30;9.10;99.90
45012;DHT22;63444;48.148;11.542;2023-02-23T01:48:08;9.10;99.90
45012;DHT22;63444;48.148;11.542;2023-02-23T01:53:16;9.20;99.90
45012;DHT22;63444;48.148;11.542;2023-02-23T01:55:57;9.10;99.90
45012;DHT22;63444;48.148;11.542;2023-02-23T01:58:26;9.10;99.90
45012;DHT22;63444;48.148;11.542;2023-02-23T02:00:56;9.30;99.90
45012;DHT22;63444;48.148;11.542;2023-02-23T02:03:53;9.30;99.90
45012;DHT22;63444;48.148;11.542;2023-02-23T02:06:22;9.30;99.90
45012;DHT22;63444;48.148;11.542;2023-02-23T02:08:51;9.30;99.90
45012;DHT22;63444;48.148;11.542;2023-02-23T02:11:20;9.30;99.90
45012;DHT22;63444;48.148;11.542;2023-02-23T02:14:36;9.20;99.90
45012;DHT22;63444;48.148;11.542;2023-02-23T02:21:01;9.30;99.90
45012;DHT22;63444;48.148;11.542;2023-02-23T02:26:17;9.30;99.90
45012;DHT22;63444;48.148;11.542;2023-02-23T02:31:57;9.20;99.90
45012;DHT22;63444;48.148;11.542;2023-02-23T02:40:32;9.30;99.90
45012;DHT22;63444;48.148;11.542;2023-02-23T02:43:13;9.20;99.90
45012;DHT22;63444;48.148;11.542;2023-02-23T02:48:19;9.10;99.90
45012;DHT22;63444;48.148;11.542;2023-02-23T02:50:53;9.10;99.90
45012;DHT22;63444;48.148;11.542;2023-02-23T02:56:07;9.20;99.90
45012;DHT22;63444;48.148;11.542;2023-02-23T02:58:35;9.10;99.90
45012;DHT22;63444;48.148;11.542;2023-02-23T03:01:11;9.10;99.90
45012;DHT22;63444;48.148;11.542;2023-02-23T03:03:55;9.10;99.90
45012;DHT22;63444;48.148;11.542;2023-02-23T03:06:49;9.20;99.90
45012;DHT22;63444;48.148;11.542;2023-02-23T03:16:30;9.20;99.90
45012;DHT22;63444;48.148;11.542;2023-02-23T03:19:26;9.10;99.90
45012;DHT22;63444;48.148;11.542;2023-02-23T03:25:13;9.10;99.90
45012;DHT22;63444;48.148;11.542;2023-02-23T03:32:00;9.10;99.90
45012;DHT22;63444;48.148;11.542;2023-02-23T03:34:39;9.20;99.90
45012;DHT22;63444;48.148;11.542;2023-02-23T03:37:40;9.20;99.90
45012;DHT22;63444;48.148;11.542;2023-02-23T03:40:28;9.20;99.90
45012;DHT22;63444;48.148;11.542;2023-02-23T03:43:19;9.20;99.90
45012;DHT22;63444;48.148;11.542;2023-02-23T03:46:23;9.20;99.90
45012;DHT22;63444;48.148;11.542;2023-02-23T03:49:10;9.10;99.90
45012;DHT22;63444;48.148;11.542;2023-02-23T03:52:02;9.10;99.90
45012;DHT22;63444;48.148;11.542;2023-02-23T03:54:53;9.30;99.90
45012;DHT22;63444;48.148;11.542;2023-02-23T03:57:40;9.20;99.90
45012;DHT22;63444;48.148;11.542;2023-02-23T04:00:31;9.20;99.90
45012;DHT22;63444;48.148;11.542;2023-02-23T04:03:17;9.20;99.90
45012;DHT22;63444;48.148;11.542;2023-02-23T04:06:05;9.10;99.90
45012;DHT22;63444;48.148;11.542;2023-02-23T04:08:50;9.20;99.90
45012;DHT22;63444;48.148;11.542;2023-02-23T04:14:53;9.20;99.90
45012;DHT22;63444;48.148;11.542;2023-02-23T04:17:23;9.20;99.90
45012;DHT22;63444;48.148;11.542;2023-02-23T04:19:51;9.10;99.90
45012;DHT22;63444;48.148;11.542;2023-02-23T04:22:17;9.20;99.90
45012;DHT22;63444;48.148;11.542;2023-02-23T04:24:43;9.30;99.90
45012;DHT22;63444;48.148;11.542;2023-02-23T04:27:10;9.20;99.90
45012;DHT22;63444;48.148;11.542;2023-02-23T04:29:36;9.30;99.90
45012;DHT22;63444;48.148;11.542;2023-02-23T04:32:02;9.30;99.90
45012;DHT22;63444;48.148;11.542;2023-02-23T04:34:27;9.40;99.90
45012;DHT22;63444;48.148;11.542;2023-02-23T04:36:53;9.40;99.90
45012;DHT22;63444;48.148;11.542;2023-02-23T04:39:19;9.40;99.90
45012;DHT22;63444;48.148;11.542;2023-02-23T04:41:44;9.50;99.90
45012;DHT22;63444;48.148;11.542;2023-02-23T04:44:10;9.50;99.90
45012;DHT22;63444;48.148;11.542;2023-02-23T04:46:35;9.50;99.90
45012;DHT22;63444;48.148;11.542;2023-02-23T04:49:01;9.50;99.90
45012;DHT22;63444;48.148;11.542;2023-02-23T04:51:28;9.50;99.90
45012;DHT22;63444;48.148;11.542;2023-02-23T04:53:55;9.50;99.90
45012;DHT22;63444;48.148;11.542;2023-02-23T04:56:20;9.50;99.90
45012;DHT22;63444;48.148;11.542;2023-02-23T04:58:46;9.50;99.90
45012;DHT22;63444;48.148;11.542;2023-02-23T05:01:11;9.50;99.90
45012;DHT22;63444;48.148;11.542;2023-02-23T05:03:37;9.50;99.90
45012;DHT22;63444;48.148;11.542;2023-02-23T05:06:03;9.50;99.90
45012;DHT22;63444;48.148;11.542;2023-02-23T05:08:29;9.50;99.90
45012;DHT22;63444;48.148;11.542;2023-02-23T05:10:55;9.40;99.90
45012;DHT22;63444;48.148;11.542;2023-02-23T05:13:21;9.40;99.90
45012;DHT22;63444;48.148;11.542;2023-02-23T05:15:47;9.40;99.90
45012;DHT22;63444;48.148;11.542;2023-02-23T05:18:13;9.40;99.90
45012;DHT22;63444;48.148;11.542;2023-02-23T05:20:41;9.40;99.90
45012;DHT22;63444;48.148;11.542;2023-02-23T05:23:09;9.30;99.90
45012;DHT22;63444;48.148;11.542;2023-02-23T05:25:37;9.30;99.90
45012;DHT22;63444;48.148;11.542;2023-02-23T05:28:03;9.40;99.90
45012;DHT22;63444;48.148;11.542;2023-02-23T05:30:29;9.30;99.90
45012;DHT22;63444;48.148;11.542;2023-02-23T05:32:55;9.30;99.90
45012;DHT22;63444;48.148;11.542;2023-02-23T05:35:21;9.40;99.90
45012;DHT22;63444;48.148;11.542;2023-02-23T05:37:46;9.30;99.90
45012;DHT22;63444;48.148;11.542;2023-02-23T05:40:12;9.30;99.90
45012;DHT22;63444;48.148;11.542;2023-02-23T05:42:38;9.30;99.90
45012;DHT22;63444;48.148;11.542;2023-02-23T05:45:04;9.30;99.90
45012;DHT22;63444;48.148;11.542;2023-02-23T05:47:31;9.30;99.90
45012;DHT22;63444;48.148;11.542;2023-02-23T05:49:57;9.30;99.90
45012;DHT22;63444;48.148;11.542;2023-02-23T05:52:23;9.40;99.90
45012;DHT22;63444;48.148;11.542;2023-02-23T05:54:49;9.30;99.90
45012;DHT22;63444;48.148;11.542;2023-02-23T05:57:15;9.30;99.90
45012;DHT22;63444;48.148;11.542;2023-02-23T05:59:40;9.40;99.90
45012;DHT22;63444;48.148;11.542;2023-02-23T06:02:06;9.30;99.90
45012;DHT22;63444;48.148;11.542;2023-02-23T06:04:32;9.30;99.90
45012;DHT22;63444;48.148;11.542;2023-02-23T06:06:58;9.40;99.90
45012;DHT22;63444;48.148;11.542;2023-02-23T06:09:23;9.30;99.90
45012;DHT22;63444;48.148;11.542;2023-02-23T06:11:55;9.30;99.90
45012;DHT22;63444;48.148;11.542;2023-02-23T06:14:22;9.40;99.90
45012;DHT22;63444;48.148;11.542;2023-02-23T06:16:48;9.40;99.90
45012;DHT22;63444;48.148;11.542;2023-02-23T06:19:14;9.40;99.90
45012;DHT22;63444;48.148;11.542;2023-02-23T06:21:39;9.40;99.90
45012;DHT22;63444;48.148;11.542;2023-02-23T06:24:05;9.40;99.90
45012;DHT22;63444;48.148;11.542;2023-02-23T06:26:31;9.30;99.90
45012;DHT22;63444;48.148;11.542;2023-02-23T06:28:57;9.30;99.90
45012;DHT22;63444;48.148;11.542;2023-02-23T06:31:23;9.30;99.90
45012;DHT22;63444;48.148;11.542;2023-02-23T06:33:48;9.20;99.90
45012;DHT22;63444;48.148;11.542;2023-02-23T06:36:15;9.20;99.90
45012;DHT22;63444;48.148;11.542;2023-02-23T06:38:40;9.30;99.90
45012;DHT22;63444;48.148;11.542;2023-02-23T06:41:08;9.30;99.90
45012;DHT22;63444;48.148;11.542;2023-02-23T06:43:34;9.30;99.90
45012;DHT22;63444;48.148;11.542;2023-02-23T06:45:59;9.30;99.90
45012;DHT22;63444;48.148;11.542;2023-02-23T06:48:25;9.30;99.90
45012;DHT22;63444;48.148;11.542;2023-02-23T06:50:50;9.30;99.90
45012;DHT22;63444;48.148;11.542;2023-02-23T06:53:16;9.40;99.90
45012;DHT22;63444;48.148;11.542;2023-02-23T06:55:44;9.30;99.90
45012;DHT22;63444;48.148;11.542;2023-02-23T06:58:10;9.30;99.90
45012;DHT22;63444;48.148;11.542;2023-02-23T07:00:36;9.30;99.90
45012;DHT22;63444;48.148;11.542;2023-02-23T07:03:03;9.30;99.90
45012;DHT22;63444;48.148;11.542;2023-02-23T07:05:30;9.30;99.90
45012;DHT22;63444;48.148;11.542;2023-02-23T07:07:55;9.30;99.90
45012;DHT22;63444;48.148;11.542;2023-02-23T07:10:21;9.30;99.90
45012;DHT22;63444;48.148;11.542;2023-02-23T07:12:47;9.30;99.90
45012;DHT22;63444;48.148;11.542;2023-02-23T07:15:12;9.40;99.90
45012;DHT22;63444;48.148;11.542;2023-02-23T07:17:42;9.30;99.90
45012;DHT22;63444;48.148;11.542;2023-02-23T07:20:09;9.30;99.90
45012;DHT22;63444;48.148;11.542;2023-02-23T07:22:35;9.30;99.90
45012;DHT22;63444;48.148;11.542;2023-02-23T07:25:00;9.30;99.90
45012;DHT22;63444;48.148;11.542;2023-02-23T07:27:26;9.40;99.90
45012;DHT22;63444;48.148;11.542;2023-02-23T07:29:52;9.40;99.90
45012;DHT22;63444;48.148;11.542;2023-02-23T07:32:18;9.40;99.90
45012;DHT22;63444;48.148;11.542;2023-02-23T07:34:43;9.40;99.90
45012;DHT22;63444;48.148;11.542;2023-02-23T07:37:10;9.40;99.90
45012;DHT22;63444;48.148;11.542;2023-02-23T07:39:36;9.40;99.90
45012;DHT22;63444;48.148;11.542;2023-02-23T07:42:03;9.50;99.90
45012;DHT22;63444;48.148;11.542;2023-02-23T07:44:28;9.50;99.90
45012;DHT22;63444;48.148;11.542;2023-02-23T07:46:54;9.50;99.90
45012;DHT22;63444;48.148;11.542;2023-02-23T07:49:19;9.60;99.90
45012;DHT22;63444;48.148;11.542;2023-02-23T07:51:45;9.70;99.90
45012;DHT22;63444;48.148;11.542;2023-02-23T07:54:11;9.70;99.90
45012;DHT22;63444;48.148;11.542;2023-02-23T07:56:36;9.80;99.90
45012;DHT22;63444;48.148;11.542;2023-02-23T07:59:02;9.70;99.90
45012;DHT22;63444;48.148;11.542;2023-02-23T08:01:28;9.70;99.90
45012;DHT22;63444;48.148;11.542;2023-02-23T08:03:54;9.80;99.90
45012;DHT22;63444;48.148;11.542;2023-02-23T08:06:21;9.80;99.90
45012;DHT22;63444;48.148;11.542;2023-02-23T08:08:48;9.80;99.90
45012;DHT22;63444;48.148;11.542;2023-02-23T08:11:14;9.80;99.90
45012;DHT22;63444;48.148;11.542;2023-02-23T08:13:40;9.80;99.90
45012;DHT22;63444;48.148;11.542;2023-02-23T08:16:06;9.70;99.90
45012;DHT22;63444;48.148;11.542;2023-02-23T08:18:31;9.80;99.90
45012;DHT22;63444;48.148;11.542;2023-02-23T08:21:01;9.80;99.90
45012;DHT22;63444;48.148;11.542;2023-02-23T08:23:31;9.80;99.90
45012;DHT22;63444;48.148;11.542;2023-02-23T08:25:57;9.90;99.90
45012;DHT22;63444;48.148;11.542;2023-02-23T08:28:24;9.90;99.90
45012;DHT22;63444;48.148;11.542;2023-02-23T08:30:49;9.90;99.90
45012;DHT22;63444;48.148;11.542;2023-02-23T08:33:15;10.10;99.90
45012;DHT22;63444;48.148;11.542;2023-02-23T08:35:41;10.00;99.90
45012;DHT22;63444;48.148;11.542;2023-02-23T08:38:06;10.00;99.90
45012;DHT22;63444;48.148;11.542;2023-02-23T08:40:32;10.10;99.90
45012;DHT22;63444;48.148;11.542;2023-02-23T08:42:58;10.10;99.90
45012;DHT22;63444;48.148;11.542;2023-02-23T08:45:23;10.10;99.90
45012;DHT22;63444;48.148;11.542;2023-02-23T08:47:49;10.00;99.90
45012;DHT22;63444;48.148;11.542;2023-02-23T08:50:15;10.00;99.90
45012;DHT22;63444;48.148;11.542;2023-02-23T08:52:43;10.00;99.90
45012;DHT22;63444;48.148;11.542;2023-02-23T08:55:09;10.10;99.90
45012;DHT22;63444;48.148;11.542;2023-02-23T08:57:36;10.20;99.90
45012;DHT22;63444;48.148;11.542;2023-02-23T09:00:04;10.30;99.90
45012;DHT22;63444;48.148;11.542;2023-02-23T09:02:39;10.40;99.90
45012;DHT22;63444;48.148;11.542;2023-02-23T09:05:06;10.40;99.90
45012;DHT22;63444;48.148;11.542;2023-02-23T09:07:32;10.50;99.90
45012;DHT22;63444;48.148;11.542;2023-02-23T09:09:58;10.50;99.90
45012;DHT22;63444;48.148;11.542;2023-02-23T09:12:24;10.50;99.90
45012;DHT22;63444;48.148;11.542;2023-02-23T09:14:50;10.60;99.90
45012;DHT22;63444;48.148;11.542;2023-02-23T09:17:18;10.60;99.90
45012;DHT22;63444;48.148;11.542;2023-02-23T09:19:43;10.60;99.90
45012;DHT22;63444;48.148;11.542;2023-02-23T09:22:09;10.60;99.90
45012;DHT22;63444;48.148;11.542;2023-02-23T09:24:34;10.70;99.90
45012;DHT22;63444;48.148;11.542;2023-02-23T09:27:00;10.60;99.90
45012;DHT22;63444;48.148;11.542;2023-02-23T09:29:26;10.60;99.90
45012;DHT22;63444;48.148;11.542;2023-02-23T09:31:51;10.60;99.90
45012;DHT22;63444;48.148;11.542;2023-02-23T09:34:18;10.70;99.90
45012;DHT22;63444;48.148;11.542;2023-02-23T09:36:43;10.80;99.90
45012;DHT22;63444;48.148;11.542;2023-02-23T09:39:09;10.60;99.90
45012;DHT22;63444;48.148;11.542;2023-02-23T09:41:53;10.70;99.90
45012;DHT22;63444;48.148;11.542;2023-02-23T09:44:50;10.80;99.90
45012;DHT22;63444;48.148;11.542;2023-02-23T09:47:27;10.80;99.90
45012;DHT22;63444;48.148;11.542;2023-02-23T09:50:02;10.80;99.90
45012;DHT22;63444;48.148;11.542;2023-02-23T09:52:37;10.90;99.90
45012;DHT22;63444;48.148;11.542;2023-02-23T09:55:04;11.00;99.90
45012;DHT22;63444;48.148;11.542;2023-02-23T09:57:39;11.00;99.90
45012;DHT22;63444;48.148;11.542;2023-02-23T10:00:21;11.00;99.90
45012;DHT22;63444;48.148;11.542;2023-02-23T10:05:46;11.10;99.90
45012;DHT22;63444;48.148;11.542;2023-02-23T10:08:31;11.20;99.90
45012;DHT22;63444;48.148;11.542;2023-02-23T10:19:49;11.20;99.90
45012;DHT22;63444;48.148;11.542;2023-02-23T10:22:15;11.20;99.90
45012;DHT22;63444;48.148;11.542;2023-02-23T10:25:02;11.30;99.90
45012;DHT22;63444;48.148;11.542;2023-02-23T10:27:35;11.40;99.90
45012;DHT22;63444;48.148;11.542;2023-02-23T10:30:11;11.50;99.90
45012;DHT22;63444;48.148;11.542;2023-02-23T10:35:12;11.60;99.90
45012;DHT22;63444;48.148;11.542;2023-02-23T10:37:38;11.60;99.90
45012;DHT22;63444;48.148;11.542;2023-02-23T10:40:04;11.70;99.90
45012;DHT22;63444;48.148;11.542;2023-02-23T10:42:31;11.70;99.90
45012;DHT22;63444;48.148;11.542;2023-02-23T10:44:58;11.70;99.90
45012;DHT22;63444;48.148;11.542;2023-02-23T10:47:27;11.60;99.90
45012;DHT22;63444;48.148;11.542;2023-02-23T10:49:55;11.60;99.90
45012;DHT22;63444;48.148;11.542;2023-02-23T10:52:28;11.50;99.90
45012;DHT22;63444;48.148;11.542;2023-02-23T10:54:55;11.50;99.90
45012;DHT22;63444;48.148;11.542;2023-02-23T10:57:30;11.50;99.90
45012;DHT22;63444;48.148;11.542;2023-02-23T11:02:43;11.60;99.90
45012;DHT22;63444;48.148;11.542;2023-02-23T11:05:34;11.70;99.90
45012;DHT22;63444;48.148;11.542;2023-02-23T11:08:13;11.70;99.90
45012;DHT22;63444;48.148;11.542;2023-02-23T11:13:39;11.70;99.90
45012;DHT22;63444;48.148;11.542;2023-02-23T11:16:11;11.70;99.90
45012;DHT22;63444;48.148;11.542;2023-02-23T11:18:52;11.80;99.90
45012;DHT22;63444;48.148;11.542;2023-02-23T11:21:24;12.10;99.90
45012;DHT22;63444;48.148;11.542;2023-02-23T11:23:54;12.20;99.90
45012;DHT22;63444;48.148;11.542;2023-02-23T11:28:55;12.60;99.90
45012;DHT22;63444;48.148;11.542;2023-02-23T11:31:29;12.60;99.90
45012;DHT22;63444;48.148;11.542;2023-02-23T11:33:57;12.70;99.90
45012;DHT22;63444;48.148;11.542;2023-02-23T11:39:08;12.40;99.90
45012;DHT22;63444;48.148;11.542;2023-02-23T11:41:39;12.40;99.90
45012;DHT22;63444;48.148;11.542;2023-02-23T11:44:04;12.60;99.90
45012;DHT22;63444;48.148;11.542;2023-02-23T11:46:34;13.50;99.90
45012;DHT22;63444;48.148;11.542;2023-02-23T11:49:08;14.60;99.90
45012;DHT22;63444;48.148;11.542;2023-02-23T11:51:40;14.80;99.90
45012;DHT22;63444;48.148;11.542;2023-02-23T11:54:30;14.90;99.90
45012;DHT22;63444;48.148;11.542;2023-02-23T11:56:57;15.00;99.90
45012;DHT22;63444;48.148;11.542;2023-02-23T11:59:36;14.80;99.90
45012;DHT22;63444;48.148;11.542;2023-02-23T12:04:49;14.10;99.90
45012;DHT22;63444;48.148;11.542;2023-02-23T12:10:30;13.70;99.90
45012;DHT22;63444;48.148;11.542;2023-02-23T12:27:00;13.30;99.90
45012;DHT22;63444;48.148;11.542;2023-02-23T12:32:17;13.30;99.90
45012;DHT22;63444;48.148;11.542;2023-02-23T12:34:51;13.30;99.90
45012;DHT22;63444;48.148;11.542;2023-02-23T12:39:57;13.20;99.90
45012;DHT22;63444;48.148;11.542;2023-02-23T12:42:36;13.20;99.90
45012;DHT22;63444;48.148;11.542;2023-02-23T12:45:06;13.10;99.90
45012;DHT22;63444;48.148;11.542;2023-02-23T12:50:39;13.20;99.90
45012;DHT22;63444;48.148;11.542;2023-02-23T12:53:27;13.30;99.90
45012;DHT22;63444;48.148;11.542;2023-02-23T13:01:21;13.20;99.90
45012;DHT22;63444;48.148;11.542;2023-02-23T13:04:02;13.20;99.90
45012;DHT22;63444;48.148;11.542;2023-02-23T13:09:46;13.20;99.90
45012;DHT22;63444;48.148;11.542;2023-02-23T13:21:05;13.40;99.90
45012;DHT22;63444;48.148;11.542;2023-02-23T13:23:34;13.40;99.90
45012;DHT22;63444;48.148;11.542;2023-02-23T13:31:40;13.30;99.90
45012;DHT22;63444;48.148;11.542;2023-02-23T13:34:11;13.30;99.90
45012;DHT22;63444;48.148;11.542;2023-02-23T13:36:41;13.40;99.90
45012;DHT22;63444;48.148;11.542;2023-02-23T13:42:26;13.40;99.90
45012;DHT22;63444;48.148;11.542;2023-02-23T13:47:46;13.40;99.90
45012;DHT22;63444;48.148;11.542;2023-02-23T13:53:43;13.40;99.90
45012;DHT22;63444;48.148;11.542;2023-02-23T13:56:22;13.40;99.90
45012;DHT22;63444;48.148;11.542;2023-02-23T13:58:57;13.40;99.90
45012;DHT22;63444;48.148;11.542;2023-02-23T14:01:37;13.40;99.90
45012;DHT22;63444;48.148;11.542;2023-02-23T14:04:06;13.40;99.90
45012;DHT22;63444;48.148;11.542;2023-02-23T14:06:39;13.40;99.90
45012;DHT22;63444;48.148;11.542;2023-02-23T14:09:09;13.50;99.90
45012;DHT22;63444;48.148;11.542;2023-02-23T14:11:37;13.60;99.90
45012;DHT22;63444;48.148;11.542;2023-02-23T14:14:11;13.60;99.90
45012;DHT22;63444;48.148;11.542;2023-02-23T14:16:40;13.50;99.90
45012;DHT22;63444;48.148;11.542;2023-02-23T14:19:13;13.40;99.90
45012;DHT22;63444;48.148;11.542;2023-02-23T14:22:08;13.50;99.90
45012;DHT22;63444;48.148;11.542;2023-02-23T14:24:34;13.50;99.90
45012;DHT22;63444;48.148;11.542;2023-02-23T14:27:23;13.60;99.90
45012;DHT22;63444;48.148;11.542;2023-02-23T14:30:11;13.50;99.90
45012;DHT22;63444;48.148;11.542;2023-02-23T14:32:39;13.40;99.90
45012;DHT22;63444;48.148;11.542;2023-02-23T14:35:08;13.30;99.90
45012;DHT22;63444;48.148;11.542;2023-02-23T14:37:57;13.30;99.90
45012;DHT22;63444;48.148;11.542;2023-02-23T14:40:29;13.30;99.90
45012;DHT22;63444;48.148;11.542;2023-02-23T14:42:57;13.20;99.90
45012;DHT22;63444;48.148;11.542;2023-02-23T14:45:28;13.20;99.80
45012;DHT22;63444;48.148;11.542;2023-02-23T14:47:57;13.20;99.90
45012;DHT22;63444;48.148;11.542;2023-02-23T14:50:31;13.20;99.90
45012;DHT22;63444;48.148;11.542;2023-02-23T14:52:57;13.20;99.90
45012;DHT22;63444;48.148;11.542;2023-02-23T14:55:27;13.20;99.90
45012;DHT22;63444;48.148;11.542;2023-02-23T14:57:55;13.20;99.80
45012;DHT22;63444;48.148;11.542;2023-02-23T15:00:24;13.10;99.80
45012;DHT22;63444;48.148;11.542;2023-02-23T15:03:10;13.00;99.90
45012;DHT22;63444;48.148;11.542;2023-02-23T15:05:44;12.90;99.90
45012;DHT22;63444;48.148;11.542;2023-02-23T15:08:16;12.80;99.90
45012;DHT22;63444;48.148;11.542;2023-02-23T15:10:44;12.80;99.90
45012;DHT22;63444;48.148;11.542;2023-02-23T15:13:35;12.80;99.90
45012;DHT22;63444;48.148;11.542;2023-02-23T15:16:26;12.80;99.90
45012;DHT22;63444;48.148;11.542;2023-02-23T15:18:52;12.80;99.90
45012;DHT22;63444;48.148;11.542;2023-02-23T15:21:22;12.90;99.90
45012;DHT22;63444;48.148;11.542;2023-02-23T15:23:57;12.90;99.90
45012;DHT22;63444;48.148;11.542;2023-02-23T15:26:33;12.90;99.90
45012;DHT22;63444;48.148;11.542;2023-02-23T15:29:17;12.90;99.90
45012;DHT22;63444;48.148;11.542;2023-02-23T15:31:45;12.90;99.90
45012;DHT22;63444;48.148;11.542;2023-02-23T15:34:27;12.80;99.90
45012;DHT22;63444;48.148;11.542;2023-02-23T15:36:58;12.80;99.90
45012;DHT22;63444;48.148;11.542;2023-02-23T15:39:36;12.80;99.90
45012;DHT22;63444;48.148;11.542;2023-02-23T15:42:05;12.80;99.90
45012;DHT22;63444;48.148;11.542;2023-02-23T15:44:34;12.80;99.90
45012;DHT22;63444;48.148;11.542;2023-02-23T15:47:04;12.70;99.90
45012;DHT22;63444;48.148;11.542;2023-02-23T15:49:34;12.60;99.90
45012;DHT22;63444;48.148;11.542;2023-02-23T15:52:05;12.60;99.90
45012;DHT22;63444;48.148;11.542;2023-02-23T15:57:06;12.60;99.90
45012;DHT22;63444;48.148;11.542;2023-02-23T15:59:39;12.70;99.90
45012;DHT22;63444;48.148;11.542;2023-02-23T16:02:17;12.70;99.90
45012;DHT22;63444;48.148;11.542;2023-02-23T16:04:46;12.60;99.90
45012;DHT22;63444;48.148;11.542;2023-02-23T16:07:25;12.60;99.90
45012;DHT22;63444;48.148;11.542;2023-02-23T16:10:03;12.50;99.90
45012;DHT22;63444;48.148;11.542;2023-02-23T16:12:31;12.60;99.90
45012;DHT22;63444;48.148;11.542;2023-02-23T16:15:20;12.60;99.90
45012;DHT22;63444;48.148;11.542;2023-02-23T16:18:50;12.60;99.90
45012;DHT22;63444;48.148;11.542;2023-02-23T16:20:58;12.60;99.90
45012;DHT22;63444;48.148;11.542;2023-02-23T16:23:25;12.60;99.90
45012;DHT22;63444;48.148;11.542;2023-02-23T16:25:54;12.60;99.90
45012;DHT22;63444;48.148;11.542;2023-02-23T16:28:21;12.60;99.90
45012;DHT22;63444;48.148;11.542;2023-02-23T16:31:03;12.60;99.90
45012;DHT22;63444;48.148;11.542;2023-02-23T16:33:44;12.60;99.90
45012;DHT22;63444;48.148;11.542;2023-02-23T16:41:26;12.60;99.90
45012;DHT22;63444;48.148;11.542;2023-02-23T16:43:56;12.60;99.90
45012;DHT22;63444;48.148;11.542;2023-02-23T16:46:27;12.60;99.90
45012;DHT22;63444;48.148;11.542;2023-02-23T16:48:53;12.60;99.90
45012;DHT22;63444;48.148;11.542;2023-02-23T16:51:20;12.60;99.90
45012;DHT22;63444;48.148;11.542;2023-02-23T16:53:49;12.50;99.90
45012;DHT22;63444;48.148;11.542;2023-02-23T16:56:18;12.60;99.90
45012;DHT22;63444;48.148;11.542;2023-02-23T16:58:47;12.50;99.90
45012;DHT22;63444;48.148;11.542;2023-02-23T17:01:14;12.60;99.90
45012;DHT22;63444;48.148;11.542;2023-02-23T17:03:41;12.50;99.90
45012;DHT22;63444;48.148;11.542;2023-02-23T17:06:07;12.50;99.90
45012;DHT22;63444;48.148;11.542;2023-02-23T17:08:33;12.60;99.90
45012;DHT22;63444;48.148;11.542;2023-02-23T17:11:02;12.60;99.90
45012;DHT22;63444;48.148;11.542;2023-02-23T17:13:29;12.50;99.90
45012;DHT22;63444;48.148;11.542;2023-02-23T17:16:00;12.60;99.90
45012;DHT22;63444;48.148;11.542;2023-02-23T17:18:33;12.50;99.90
45012;DHT22;63444;48.148;11.542;2023-02-23T17:21:02;12.50;99.90
45012;DHT22;63444;48.148;11.542;2023-02-23T17:23:30;12.50;99.90
45012;DHT22;63444;48.148;11.542;2023-02-23T17:26:08;12.50;99.90
45012;DHT22;63444;48.148;11.542;2023-02-23T17:28:34;12.50;99.90
45012;DHT22;63444;48.148;11.542;2023-02-23T17:31:01;12.50;99.90
45012;DHT22;63444;48.148;11.542;2023-02-23T17:33:28;12.40;99.90
45012;DHT22;63444;48.148;11.542;2023-02-23T17:35:59;12.40;99.90
45012;DHT22;63444;48.148;11.542;2023-02-23T17:38:26;12.40;99.90
45012;DHT22;63444;48.148;11.542;2023-02-23T17:41:07;12.30;99.90
45012;DHT22;63444;48.148;11.542;2023-02-23T17:43:35;12.30;99.90
45012;DHT22;63444;48.148;11.542;2023-02-23T17:46:04;12.30;99.90
45012;DHT22;63444;48.148;11.542;2023-02-23T17:48:30;12.30;99.90
45012;DHT22;63444;48.148;11.542;2023-02-23T17:51:07;12.30;99.90
45012;DHT22;63444;48.148;11.542;2023-02-23T17:53:33;12.20;99.90
45012;DHT22;63444;48.148;11.542;2023-02-23T17:55:59;12.20;99.90
45012;DHT22;63444;48.148;11.542;2023-02-23T17:58:25;12.20;99.90
45012;DHT22;63444;48.148;11.542;2023-02-23T18:01:00;12.10;99.90
45012;DHT22;63444;48.148;11.542;2023-02-23T18:03:29;12.10;99.90
45012;DHT22;63444;48.148;11.542;2023-02-23T18:08:28;12.00;99.90